Time;durP1;ratioP1;P1;durP2;ratioP2;P2;SDS_P1;SDS_P2;PMS_P1;PMS_P2;Temp;Humidity;BMP_temperature;BMP_pressure;BME280_temperature;BME280_humidity;BME280_pressure;Samples;Min_cycle;Max_cycle;Signal;HPM_P1;HPM_P2
2022/10/28 00:02:12;;;;;;;5.50;2.77;;;8.60;99.90;9.30;98014.00;;;;4973877;28;20223;-65
2022/10/28 00:05:01;;;;;;;4.30;2.40;;;8.60;99.90;9.30;98009.00;;;;4971387;28;20214;-67
2022/10/28 00:07:49;;;;;;;7.87;2.93;;;8.50;99.90;9.30;98008.00;;;;4970759;28;20195;-66
2022/10/28 00:10:38;;;;;;;4.03;3.07;;;8.50;99.90;9.30;98017.00;;;;4964640;28;20234;-65
2022/10/28 00:13:27;;;;;;;5.13;2.97;;;8.40;99.90;9.20;98012.00;;;;4971653;28;20216;-66
2022/10/28 00:16:20;;;;;;;4.17;2.77;;;8.40;99.90;9.30;98016.00;;;;4970991;28;20614;-66
2022/10/28 00:19:12;;;;;;;11.30;3.47;;;8.30;99.90;9.40;98011.00;;;;4969202;28;20206;-66
2022/10/28 00:22:01;;;;;;;4.00;2.43;;;8.40;99.90;9.60;98011.00;;;;4972583;28;20234;-66
2022/10/28 00:24:49;;;;;;;4.00;2.97;;;8.40;99.90;9.40;98026.00;;;;4971943;28;20250;-66
2022/10/28 00:27:38;;;;;;;3.07;2.70;;;8.40;99.90;9.10;98010.00;;;;4965736;28;20231;-66
2022/10/28 00:30:27;;;;;;;4.83;2.93;;;8.30;99.90;9.20;98009.00;;;;4970412;28;20216;-66
2022/10/28 00:33:17;;;;;;;4.63;2.27;;;8.30;99.90;9.30;98005.00;;;;4972006;28;20238;-66
2022/10/28 00:36:15;;;;;;;3.03;2.80;;;8.30;99.90;9.20;97998.00;;;;4970678;28;20214;-66
2022/10/28 00:39:11;;;;;;;3.87;3.07;;;8.30;99.90;8.90;98000.00;;;;4957953;28;20238;-66
2022/10/28 00:42:02;;;;;;;5.07;2.70;;;8.30;99.90;8.90;97996.00;;;;4972435;28;20305;-67
2022/10/28 00:44:57;;;;;;;6.67;3.17;;;8.20;99.90;9.00;98010.00;;;;4968910;28;20227;-65
2022/10/28 00:47:54;;;;;;;4.13;2.67;;;8.10;99.90;9.20;98012.00;;;;4978188;28;20253;-66
2022/10/28 00:50:50;;;;;;;4.00;2.90;;;8.20;99.90;8.70;98000.00;;;;4965559;28;20203;-67
2022/10/28 00:53:41;;;;;;;3.97;3.07;;;8.20;99.90;8.80;97997.00;;;;4967463;28;20374;-66
2022/10/28 00:56:34;;;;;;;2.90;2.33;;;8.10;99.90;8.50;97998.00;;;;4968683;28;20203;-66
2022/10/28 00:59:27;;;;;;;4.70;2.27;;;8.00;99.90;8.60;97992.00;;;;4969853;28;20253;-65
2022/10/28 01:02:16;;;;;;;3.63;3.03;;;7.90;99.90;8.60;97993.00;;;;4970963;28;20203;-65
2022/10/28 01:05:06;;;;;;;6.23;2.50;;;7.90;99.90;8.50;97987.00;;;;4970111;28;20199;-70
2022/10/28 01:08:00;;;;;;;6.77;3.23;;;7.90;99.90;8.80;97981.00;;;;4969326;28;20239;-66
2022/10/28 01:11:21;;;;;;;2.90;2.70;;;7.90;99.90;8.80;97979.00;;;;4962379;28;20237;-68
2022/10/28 01:14:20;;;;;;;4.27;2.50;;;7.90;99.90;8.80;97979.00;;;;4961359;28;20286;-66
2022/10/28 01:17:30;;;;;;;3.63;3.20;;;8.00;99.90;9.00;97977.00;;;;4965357;28;20451;-65
2022/10/28 01:21:13;;;;;;;8.73;3.23;;;8.00;99.90;8.80;97970.00;;;;5015084;23;20718;-70
2022/10/28 01:24:21;;;;;;;3.03;2.73;;;8.10;99.90;9.00;97978.00;;;;5003795;28;20292;-69
2022/10/28 01:27:50;;;;;;;3.50;3.20;;;8.00;99.90;8.90;97980.00;;;;4996756;28;20207;-69
2022/10/28 01:31:13;;;;;;;3.37;2.97;;;8.10;99.90;8.70;97965.00;;;;4982731;28;20239;-70
2022/10/28 01:34:12;;;;;;;6.50;3.13;;;8.10;99.90;9.10;97974.00;;;;4983807;28;20331;-69
2022/10/28 01:37:10;;;;;;;5.43;2.93;;;8.20;99.90;9.40;97981.00;;;;4986227;28;20202;-70
2022/10/28 01:40:06;;;;;;;6.90;3.20;;;8.30;99.90;9.20;97981.00;;;;4990351;28;20710;-69
2022/10/28 01:43:06;;;;;;;5.73;3.03;;;8.30;99.90;8.90;97976.00;;;;4989819;28;20246;-69
2022/10/28 01:46:01;;;;;;;7.83;3.43;;;8.30;99.90;9.00;97973.00;;;;4987695;28;20206;-69
2022/10/28 01:48:56;;;;;;;4.63;2.43;;;8.20;99.90;9.00;97983.00;;;;4988537;28;20230;-71
2022/10/28 01:51:48;;;;;;;3.67;2.90;;;8.20;99.90;9.20;97975.00;;;;4990462;28;20729;-70
2022/10/28 01:54:41;;;;;;;5.70;3.53;;;8.20;99.90;9.40;97963.00;;;;4989401;28;20198;-70
2022/10/28 01:57:31;;;;;;;4.33;3.10;;;8.30;99.90;9.10;97977.00;;;;4985563;28;20694;-70
2022/10/28 02:00:21;;;;;;;8.33;2.90;;;8.30;99.90;8.50;97970.00;;;;4987667;28;20312;-70
2022/10/28 02:03:10;;;;;;;6.77;3.10;;;8.10;99.90;8.50;97964.00;;;;4989416;28;20273;-71
2022/10/28 02:06:03;;;;;;;4.43;2.87;;;7.90;99.90;8.60;97963.00;;;;4984781;28;20294;-69
2022/10/28 02:09:15;;;;;;;3.43;2.87;;;7.80;99.90;8.60;97961.00;;;;4983829;28;20230;-69
2022/10/28 02:12:25;;;;;;;2.87;2.60;;;7.80;99.90;8.30;97958.00;;;;4986343;28;20195;-72
2022/10/28 02:15:32;;;;;;;3.57;3.00;;;7.70;99.90;8.60;97951.00;;;;4980044;28;20206;-70
2022/10/28 02:18:31;;;;;;;3.73;2.97;;;7.70;99.90;8.90;97953.00;;;;4989163;28;20571;-70
2022/10/28 02:21:35;;;;;;;6.37;5.03;;;7.80;99.90;9.20;97956.00;;;;4988533;28;20214;-68
2022/10/28 02:24:30;;;;;;;4.23;3.43;;;8.00;99.90;9.40;97947.00;;;;4989045;28;20195;-70
2022/10/28 02:27:29;;;;;;;6.53;3.67;;;8.10;99.90;9.50;97946.00;;;;4988215;28;20211;-69
2022/10/28 02:30:23;;;;;;;4.10;2.53;;;8.20;99.90;8.40;97948.00;;;;4988484;28;20300;-69
2022/10/28 02:33:16;;;;;;;3.00;2.70;;;8.10;99.90;8.50;97941.00;;;;4986093;28;20633;-69
2022/10/28 02:36:10;;;;;;;5.00;3.57;;;7.90;99.90;8.30;97943.00;;;;4989317;28;20198;-69
2022/10/28 02:39:02;;;;;;;4.83;3.10;;;7.70;99.90;8.20;97935.00;;;;4989975;28;20722;-69
2022/10/28 02:41:55;;;;;;;5.03;3.43;;;7.70;99.90;8.40;97930.00;;;;4993194;28;20298;-69
2022/10/28 02:44:49;;;;;;;5.77;2.73;;;7.70;99.90;8.60;97928.00;;;;4991599;28;20198;-69
2022/10/28 02:47:44;;;;;;;7.80;3.73;;;7.70;99.90;8.60;97924.00;;;;4988385;28;20624;-70
2022/10/28 02:50:37;;;;;;;4.47;3.60;;;7.80;99.90;8.50;97925.00;;;;4994192;28;20629;-69
2022/10/28 02:53:32;;;;;;;8.37;4.27;;;7.70;99.90;9.00;97916.00;;;;4992670;28;20253;-69
2022/10/28 02:56:22;;;;;;;7.60;4.37;;;7.80;99.90;9.00;97925.00;;;;4993745;28;20207;-70
2022/10/28 02:59:13;;;;;;;5.40;4.90;;;7.90;99.90;8.60;97921.00;;;;4992923;28;20297;-70
2022/10/28 03:02:02;;;;;;;5.70;3.27;;;7.80;99.90;8.60;97924.00;;;;4989164;28;20341;-69
2022/10/28 03:04:50;;;;;;;4.03;3.00;;;7.70;99.90;8.80;97910.00;;;;4993355;28;20206;-70
2022/10/28 03:07:39;;;;;;;7.10;4.93;;;7.80;99.90;8.90;97929.00;;;;4992493;28;20202;-70
2022/10/28 03:10:28;;;;;;;6.07;4.10;;;7.80;99.90;9.10;97927.00;;;;4993473;28;20281;-69
2022/10/28 03:13:18;;;;;;;10.70;3.97;;;7.90;99.90;9.20;97923.00;;;;4993441;28;20206;-69
2022/10/28 03:16:06;;;;;;;3.30;3.00;;;8.10;99.90;9.00;97927.00;;;;4993163;28;20625;-68
2022/10/28 03:18:55;;;;;;;6.10;3.63;;;8.10;99.90;9.10;97923.00;;;;4992043;28;20238;-69
2022/10/28 03:21:44;;;;;;;8.17;5.27;;;8.10;99.90;9.20;97929.00;;;;4994012;28;20269;-69
2022/10/28 03:24:33;;;;;;;7.73;5.23;;;8.10;99.90;9.30;97926.00;;;;4983254;28;20289;-69
2022/10/28 03:27:21;;;;;;;6.00;4.83;;;8.10;99.90;9.40;97929.00;;;;4991922;28;20764;-69
2022/10/28 03:30:13;;;;;;;5.67;4.03;;;8.20;99.90;9.10;97934.00;;;;4991677;28;20277;-69
2022/10/28 03:33:02;;;;;;;4.17;3.50;;;8.20;99.90;8.80;97924.00;;;;4992480;28;20211;-69
2022/10/28 03:35:50;;;;;;;5.40;4.40;;;8.10;99.90;8.70;97927.00;;;;4992997;28;20207;-71
2022/10/28 03:38:39;;;;;;;4.73;4.10;;;8.30;99.90;8.70;97934.00;;;;4992951;28;20202;-69
2022/10/28 03:41:28;;;;;;;4.63;3.80;;;8.00;99.90;8.70;97932.00;;;;4989725;28;20714;-70
2022/10/28 03:44:16;;;;;;;5.07;3.90;;;8.00;99.90;9.10;97944.00;;;;4992616;28;20210;-69
2022/10/28 03:47:06;;;;;;;7.77;2.97;;;8.00;99.90;8.90;97939.00;;;;4988603;28;20202;-69
2022/10/28 03:49:55;;;;;;;9.57;4.40;;;8.00;99.90;9.20;97938.00;;;;4992882;28;20215;-69
2022/10/28 03:52:44;;;;;;;3.40;3.07;;;8.10;99.90;9.50;97939.00;;;;4991322;28;20202;-70
2022/10/28 03:55:32;;;;;;;7.83;4.40;;;8.20;99.90;9.20;97932.00;;;;4992665;28;20280;-69
2022/10/28 03:58:22;;;;;;;4.57;3.73;;;8.20;99.90;8.70;97934.00;;;;4990024;28;20286;-70
2022/10/28 04:01:10;;;;;;;5.40;4.20;;;8.10;99.90;8.70;97931.00;;;;4989605;28;20602;-69
2022/10/28 04:04:00;;;;;;;7.10;4.97;;;8.00;99.90;8.90;97934.00;;;;4995606;28;20732;-69
2022/10/28 04:06:49;;;;;;;11.57;7.10;;;8.10;99.90;9.20;97928.00;;;;4992391;28;20230;-68
2022/10/28 04:09:37;;;;;;;8.87;6.00;;;8.20;99.90;9.40;97931.00;;;;4991673;28;20718;-68
2022/10/28 04:12:26;;;;;;;7.60;5.17;;;8.20;99.90;9.70;97934.00;;;;4986782;28;20207;-68
2022/10/28 04:15:15;;;;;;;10.37;4.70;;;8.30;99.90;9.10;97927.00;;;;4991124;28;20229;-67
2022/10/28 04:18:04;;;;;;;7.63;5.40;;;8.30;99.90;9.00;97927.00;;;;4991028;28;20199;-68
2022/10/28 04:20:54;;;;;;;9.07;6.03;;;8.20;99.90;9.10;97923.00;;;;4991180;28;20210;-68
2022/10/28 04:23:43;;;;;;;5.80;4.80;;;8.20;99.90;9.00;97917.00;;;;4989967;28;20621;-68
2022/10/28 04:26:32;;;;;;;8.70;5.13;;;8.10;99.90;9.20;97921.00;;;;4990503;28;20756;-69
2022/10/28 04:29:20;;;;;;;8.23;5.93;;;8.20;99.90;9.50;97933.00;;;;4988249;28;20305;-69
2022/10/28 04:32:10;;;;;;;6.60;4.97;;;8.30;99.90;9.70;97925.00;;;;4990265;28;20258;-69
2022/10/28 04:34:58;;;;;;;7.77;5.23;;;8.40;99.90;9.90;97929.00;;;;4990440;28;20238;-69
2022/10/28 04:37:48;;;;;;;7.53;5.23;;;8.50;99.90;9.30;97918.00;;;;4990303;28;20265;-69
2022/10/28 04:40:37;;;;;;;7.50;4.40;;;8.50;99.90;8.90;97920.00;;;;4981933;28;20234;-69
2022/10/28 04:43:26;;;;;;;4.93;4.17;;;8.30;99.90;9.00;97927.00;;;;4991507;28;20217;-69
2022/10/28 04:46:14;;;;;;;6.17;3.87;;;8.20;99.90;9.00;97928.00;;;;4991162;28;20265;-69
2022/10/28 04:49:03;;;;;;;9.03;4.60;;;8.20;99.90;9.30;97926.00;;;;4989790;28;20230;-69
2022/10/28 04:51:52;;;;;;;7.33;4.70;;;8.20;99.90;9.30;97912.00;;;;4991734;28;20309;-69
2022/10/28 04:54:42;;;;;;;7.77;4.83;;;8.20;99.90;9.20;97911.00;;;;4990394;28;20268;-69
2022/10/28 04:57:31;;;;;;;6.23;4.07;;;8.20;99.90;9.00;97910.00;;;;4990700;28;20195;-72
2022/10/28 05:00:20;;;;;;;4.47;3.40;;;8.20;99.90;8.50;97912.00;;;;4990394;28;20246;-69
2022/10/28 05:03:09;;;;;;;7.00;4.93;;;8.00;99.90;8.80;97910.00;;;;4984028;28;20230;-69
2022/10/28 05:05:58;;;;;;;8.27;4.00;;;8.00;99.90;9.20;97907.00;;;;4989151;28;20361;-69
2022/10/28 05:08:46;;;;;;;4.30;3.80;;;8.00;99.90;9.10;97897.00;;;;4989843;28;20722;-69
2022/10/28 05:11:36;;;;;;;8.60;5.43;;;8.00;99.90;8.70;97900.00;;;;4979298;28;20706;-69
2022/10/28 05:14:25;;;;;;;9.00;4.20;;;8.00;99.90;8.70;97893.00;;;;4990737;28;20199;-69
2022/10/28 05:17:14;;;;;;;9.50;4.80;;;8.00;99.90;9.00;97896.00;;;;4988393;28;20238;-69
2022/10/28 05:20:03;;;;;;;7.90;5.07;;;8.00;99.90;9.30;97898.00;;;;4990237;28;20238;-69
2022/10/28 05:22:55;;;;;;;11.67;5.57;;;8.10;99.90;9.20;97900.00;;;;4984053;28;20335;-69
2022/10/28 05:25:44;;;;;;;7.67;5.30;;;8.10;99.90;9.30;97898.00;;;;4985021;28;20202;-69
2022/10/28 05:28:34;;;;;;;11.77;4.50;;;8.00;99.90;8.90;97901.00;;;;4990203;28;20206;-68
2022/10/28 05:31:23;;;;;;;8.23;4.23;;;8.10;99.90;8.90;97899.00;;;;4988020;28;20226;-69
2022/10/28 05:34:12;;;;;;;8.03;4.67;;;8.10;99.90;9.00;97905.00;;;;4986139;28;20199;-69
2022/10/28 05:37:00;;;;;;;10.43;4.50;;;8.10;99.90;9.10;97902.00;;;;4990827;28;20289;-69
2022/10/28 05:39:49;;;;;;;8.93;4.80;;;8.10;99.90;9.40;97901.00;;;;4989880;28;20270;-69
2022/10/28 05:42:42;;;;;;;11.43;4.63;;;8.20;99.90;9.40;97907.00;;;;4986363;28;20199;-69
2022/10/28 05:45:32;;;;;;;7.47;4.80;;;8.20;99.90;9.50;97908.00;;;;4990465;28;21020;-69
2022/10/28 05:48:21;;;;;;;11.00;3.90;;;8.20;99.90;9.20;97904.00;;;;4987524;28;20286;-69
2022/10/28 05:51:09;;;;;;;8.93;4.20;;;8.20;99.90;8.70;97900.00;;;;4987756;28;20665;-69
2022/10/28 05:53:58;;;;;;;5.10;3.60;;;8.10;99.90;8.60;97898.00;;;;4987742;28;20435;-68
2022/10/28 05:56:47;;;;;;;4.90;4.17;;;8.00;99.90;9.00;97902.00;;;;4989236;28;20199;-69
2022/10/28 05:59:35;;;;;;;5.50;4.33;;;8.00;99.90;9.40;97910.00;;;;4986552;28;20724;-70
2022/10/28 06:02:25;;;;;;;5.80;4.73;;;8.10;99.90;9.40;97910.00;;;;4989525;28;20221;-69
2022/10/28 06:05:14;;;;;;;4.77;4.33;;;8.20;99.90;9.20;97918.00;;;;4992791;28;20198;-69
2022/10/28 06:08:05;;;;;;;6.27;3.93;;;8.20;99.90;9.30;97906.00;;;;4985347;28;20222;-69
2022/10/28 06:10:55;;;;;;;5.73;4.30;;;8.30;99.90;9.30;97912.00;;;;4989774;28;20207;-69
2022/10/28 06:13:43;;;;;;;6.57;4.77;;;8.30;99.90;9.10;97911.00;;;;4982296;28;20210;-70
2022/10/28 06:16:32;;;;;;;12.30;4.37;;;8.30;99.90;9.10;97916.00;;;;4987611;28;20263;-69
2022/10/28 06:19:22;;;;;;;5.10;4.07;;;8.30;99.90;9.20;97917.00;;;;4988721;28;20293;-70
2022/10/28 06:22:12;;;;;;;10.83;3.87;;;8.30;99.90;9.20;97912.00;;;;4986672;28;20234;-69
2022/10/28 06:25:01;;;;;;;5.20;3.97;;;8.30;99.90;9.40;97921.00;;;;4973298;28;20263;-70
2022/10/28 06:27:53;;;;;;;6.97;4.27;;;8.40;99.90;9.60;97920.00;;;;4987717;28;20206;-69
2022/10/28 06:30:42;;;;;;;5.50;4.53;;;9.40;99.90;9.70;97916.00;;;;4975872;28;20236;-69
2022/10/28 06:33:31;;;;;;;6.47;4.80;;;8.60;99.90;9.80;97913.00;;;;4986552;28;20235;-69
2022/10/28 06:36:21;;;;;;;6.73;4.20;;;8.70;99.90;9.50;97921.00;;;;4987013;28;20203;-70
2022/10/28 06:39:10;;;;;;;5.10;3.17;;;8.70;99.90;9.50;97932.00;;;;4984001;28;20304;-72
2022/10/28 06:41:59;;;;;;;7.40;3.60;;;8.70;99.90;9.40;97933.00;;;;4988274;28;20218;-69
2022/10/28 06:44:48;;;;;;;7.30;5.30;;;8.70;99.90;9.70;97932.00;;;;4989548;28;20209;-69
2022/10/28 06:47:37;;;;;;;9.33;4.47;;;8.70;99.90;10.00;97928.00;;;;4987412;28;20214;-69
2022/10/28 06:50:27;;;;;;;10.33;4.27;;;8.80;99.90;10.20;97922.00;;;;4989430;28;20229;-69
2022/10/28 06:53:17;;;;;;;8.67;3.67;;;9.00;99.90;9.90;97921.00;;;;4988432;28;20231;-68
2022/10/28 06:56:07;;;;;;;4.47;3.77;;;9.00;99.90;9.80;97926.00;;;;4988853;28;20289;-68
2022/10/28 06:58:55;;;;;;;8.77;4.67;;;9.00;99.90;10.00;97920.00;;;;4982760;28;20260;-69
2022/10/28 07:01:44;;;;;;;7.97;4.00;;;9.00;99.90;10.10;97927.00;;;;4989561;28;20246;-69
2022/10/28 07:04:34;;;;;;;6.70;5.07;;;10.70;99.90;10.20;97936.00;;;;4990209;28;20206;-68
2022/10/28 07:07:22;;;;;;;8.93;4.90;;;9.20;99.90;10.50;97927.00;;;;4993366;28;20288;-68
2022/10/28 07:10:12;;;;;;;4.73;4.27;;;9.40;99.90;10.70;97934.00;;;;4993441;28;20771;-69
2022/10/28 07:13:01;;;;;;;5.87;3.77;;;9.50;99.90;10.40;97936.00;;;;5002271;28;20639;-68
2022/10/28 07:15:54;;;;;;;8.97;4.97;;;9.50;99.90;10.30;97940.00;;;;4997224;28;20207;-69
2022/10/28 07:18:43;;;;;;;6.13;4.43;;;9.40;99.90;10.60;97935.00;;;;4992336;28;20226;-69
2022/10/28 07:21:32;;;;;;;7.97;4.57;;;9.50;99.90;11.00;97939.00;;;;4984241;28;20202;-68
2022/10/28 07:24:20;;;;;;;5.57;4.13;;;9.60;99.90;10.80;97942.00;;;;4992888;28;20201;-69
2022/10/28 07:27:10;;;;;;;5.53;5.00;;;9.80;99.90;10.60;97928.00;;;;4987863;28;20297;-70
2022/10/28 07:29:59;;;;;;;7.97;5.00;;;9.70;99.90;11.10;97934.00;;;;4998111;28;20277;-69
2022/10/28 07:32:48;;;;;;;9.70;5.23;;;9.90;99.90;11.60;97936.00;;;;4996728;28;20313;-69
2022/10/28 07:35:36;;;;;;;6.93;5.17;;;10.10;99.90;12.00;97933.00;;;;4998262;28;20190;-69
2022/10/28 07:38:25;;;;;;;8.33;3.63;;;10.30;99.90;11.90;97939.00;;;;4988879;28;20207;-69
2022/10/28 07:41:14;;;;;;;7.33;4.23;;;10.50;99.90;11.80;97931.00;;;;4995889;28;20207;-69
2022/10/28 07:44:05;;;;;;;5.10;4.07;;;10.60;99.90;12.00;97938.00;;;;4994641;28;20215;-69
2022/10/28 07:46:54;;;;;;;6.73;4.80;;;10.70;99.90;12.20;97937.00;;;;4996738;28;20833;-69
2022/10/28 07:49:43;;;;;;;7.23;5.20;;;10.80;99.90;12.20;97938.00;;;;5001662;28;20242;-69
2022/10/28 07:52:32;;;;;;;6.57;5.47;;;10.90;99.90;12.60;97926.00;;;;4996546;28;20697;-70
2022/10/28 07:55:21;;;;;;;10.67;5.67;;;11.10;99.90;13.00;97930.00;;;;5002081;28;20194;-69
2022/10/28 07:58:10;;;;;;;9.63;4.10;;;11.30;99.90;12.80;97932.00;;;;4997969;28;20210;-70
2022/10/28 08:01:05;;;;;;;7.47;4.60;;;11.40;99.90;12.90;97917.00;;;;5001154;28;20281;-69
2022/10/28 08:03:53;;;;;;;7.57;4.60;;;11.60;99.90;13.40;97925.00;;;;4998875;28;20211;-70
2022/10/28 08:06:43;;;;;;;4.50;3.93;;;11.70;99.90;13.60;97922.00;;;;4998554;28;20233;-69
2022/10/28 08:09:31;;;;;;;9.33;4.53;;;12.00;99.90;13.70;97912.00;;;;4992095;28;20219;-69
2022/10/28 08:12:20;;;;;;;7.00;4.87;;;12.10;99.90;13.80;97911.00;;;;4992644;28;20301;-69
2022/10/28 08:15:11;;;;;;;8.13;4.43;;;12.30;99.90;14.20;97921.00;;;;4989750;28;20206;-68
2022/10/28 08:18:01;;;;;;;5.77;4.77;;;12.50;99.90;14.50;97923.00;;;;4990378;28;20207;-69
2022/10/28 08:20:50;;;;;;;8.13;4.97;;;12.80;99.90;14.60;97921.00;;;;4986972;28;20566;-69
2022/10/28 08:23:40;;;;;;;8.27;5.03;;;13.00;99.90;14.60;97920.00;;;;4984057;28;20219;-69
2022/10/28 08:26:29;;;;;;;9.10;4.90;;;13.20;99.90;14.80;97918.00;;;;4984316;28;20253;-69
2022/10/28 08:29:17;;;;;;;13.07;5.23;;;13.40;99.90;15.50;97920.00;;;;4987383;28;20230;-69
2022/10/28 08:32:09;;;;;;;4.80;3.80;;;13.60;99.90;15.60;97919.00;;;;4988303;28;20207;-69
2022/10/28 08:34:59;;;;;;;7.93;5.10;;;13.80;99.90;15.70;97920.00;;;;4990054;28;20241;-69
2022/10/28 08:37:51;;;;;;;6.77;4.10;;;14.00;99.90;16.10;97922.00;;;;4986846;28;20200;-69
2022/10/28 08:40:49;;;;;;;5.13;4.57;;;14.20;99.90;16.30;97920.00;;;;4987000;28;20234;-69
2022/10/28 08:44:04;;;;;;;8.17;4.53;;;14.40;99.90;16.60;97925.00;;;;4988126;28;20253;-69
2022/10/28 08:47:10;;;;;;;4.30;3.33;;;14.70;99.90;16.50;97916.00;;;;4989343;28;20214;-69
2022/10/28 08:50:10;;;;;;;8.53;5.07;;;14.90;99.90;16.50;97919.00;;;;4984670;28;20218;-69
2022/10/28 08:53:04;;;;;;;5.93;3.87;;;15.00;99.90;16.90;97930.00;;;;4987899;28;20223;-69
2022/10/28 08:55:57;;;;;;;17.37;4.70;;;15.20;99.90;17.00;97932.00;;;;4986539;28;20206;-69
2022/10/28 08:58:47;;;;;;;9.77;5.33;;;15.30;99.90;17.40;97928.00;;;;4984216;28;20226;-70
2022/10/28 09:01:46;;;;;;;3.87;3.53;;;15.50;99.90;17.60;97932.00;;;;4990440;28;20556;-69
2022/10/28 09:04:39;;;;;;;4.60;4.13;;;15.70;99.90;17.60;97929.00;;;;4985994;28;20667;-69
2022/10/28 09:07:32;;;;;;;5.17;3.70;;;15.90;99.90;17.80;97923.00;;;;4989243;28;20805;-70
2022/10/28 09:11:08;;;;;;;7.37;4.17;;;16.10;99.90;18.10;97940.00;;;;4985002;28;20307;-69
2022/10/28 09:14:15;;;;;;;6.97;3.90;;;16.20;99.90;17.90;97934.00;;;;4984009;28;20242;-69
2022/10/28 09:17:17;;;;;;;4.93;3.37;;;16.30;99.90;18.00;97936.00;;;;4988394;28;20202;-70
2022/10/28 09:20:18;;;;;;;5.13;3.87;;;16.50;99.90;18.60;97930.00;;;;4983176;28;20312;-68
2022/10/28 09:23:17;;;;;;;5.93;3.63;;;16.70;99.90;18.80;97931.00;;;;4985176;28;20222;-69
2022/10/28 09:26:19;;;;;;;5.97;4.23;;;16.80;99.90;18.90;97935.00;;;;4984731;28;20273;-69
2022/10/28 09:29:38;;;;;;;3.50;3.20;;;17.00;99.90;19.00;97928.00;;;;4981906;28;20226;-69
2022/10/28 09:32:36;;;;;;;5.13;3.83;;;17.20;99.90;19.20;97926.00;;;;4976679;28;20208;-70
2022/10/28 09:35:31;;;;;;;6.77;3.53;;;17.30;99.90;19.30;97925.00;;;;4987080;28;20211;-71
2022/10/28 09:38:29;;;;;;;7.33;3.40;;;17.50;99.90;19.30;97925.00;;;;4986556;28;20191;-70
2022/10/28 09:41:22;;;;;;;6.90;3.10;;;17.60;99.90;19.70;97932.00;;;;4995672;28;20190;-72
2022/10/28 09:44:18;;;;;;;6.57;3.83;;;17.70;99.90;19.70;97938.00;;;;4996865;28;20210;-70
2022/10/28 09:47:16;;;;;;;5.53;4.07;;;17.40;99.90;19.60;97930.00;;;;4994841;28;20262;-72
2022/10/28 09:50:13;;;;;;;5.83;3.53;;;18.00;99.90;19.80;97919.00;;;;4996651;28;20296;-71
2022/10/28 09:53:14;;;;;;;7.13;4.27;;;18.00;99.90;19.80;97929.00;;;;4993495;28;20258;-71
2022/10/28 09:56:06;;;;;;;4.77;3.43;;;18.10;99.90;20.00;97924.00;;;;4987303;28;20202;-70
2022/10/28 09:59:02;;;;;;;6.10;3.63;;;18.20;99.90;20.20;97926.00;;;;4988381;28;20226;-70
2022/10/28 10:01:51;;;;;;;2.60;2.40;;;18.40;99.90;20.30;97920.00;;;;4998523;28;20285;-72
2022/10/28 10:04:40;;;;;;;5.30;3.33;;;18.50;99.90;20.50;97922.00;;;;4991616;28;20218;-71
2022/10/28 10:07:35;;;;;;;6.83;3.67;;;18.60;99.90;20.70;97912.00;;;;4988824;28;20230;-71
2022/10/28 10:10:28;;;;;;;3.43;3.10;;;18.80;99.90;20.70;97919.00;;;;4984194;28;20230;-70
2022/10/28 10:13:22;;;;;;;4.57;3.87;;;18.90;99.90;21.40;97913.00;;;;4990160;28;20223;-69
2022/10/28 10:16:18;;;;;;;5.27;3.33;;;19.20;99.90;21.90;97911.00;;;;4995819;28;20229;-71
2022/10/28 10:19:09;;;;;;;7.43;3.17;;;19.80;99.90;22.10;97904.00;;;;4990037;28;20245;-71
2022/10/28 10:21:58;;;;;;;4.00;3.43;;;20.40;99.90;22.90;97908.00;;;;4994803;28;20296;-71
2022/10/28 10:24:47;;;;;;;4.60;3.10;;;21.10;99.90;22.90;97908.00;;;;4998427;28;20226;-70
2022/10/28 10:27:36;;;;;;;5.13;3.20;;;21.60;99.90;23.40;97900.00;;;;4989127;28;20444;-70
2022/10/28 10:30:30;;;;;;;3.67;3.00;;;22.00;99.90;23.90;97904.00;;;;4994475;28;20225;-70
2022/10/28 10:33:22;;;;;;;6.43;2.97;;;22.30;99.90;23.60;97904.00;;;;4985159;28;20194;-70
2022/10/28 10:36:16;;;;;;;4.63;2.87;;;22.40;99.90;23.00;97886.00;;;;4979186;28;20210;-71
2022/10/28 10:39:21;;;;;;;4.67;3.37;;;22.40;99.90;23.20;97899.00;;;;4988683;28;20222;-70
2022/10/28 10:42:17;;;;;;;5.57;3.07;;;22.20;99.50;23.30;97887.00;;;;4988498;28;20249;-72
2022/10/28 10:45:29;;;;;;;6.90;3.47;;;22.20;99.00;23.90;97892.00;;;;4986623;28;20214;-69
2022/10/28 10:48:18;;;;;;;3.73;3.00;;;22.30;99.10;24.40;97884.00;;;;4986623;28;20218;-69
2022/10/28 10:51:09;;;;;;;4.43;3.07;;;22.70;98.50;24.40;97878.00;;;;4986834;28;20199;-71
2022/10/28 10:53:59;;;;;;;3.30;3.00;;;22.80;98.30;23.80;97876.00;;;;4985613;28;20203;-70
2022/10/28 10:56:48;;;;;;;3.93;3.00;;;22.80;97.30;23.90;97875.00;;;;4994071;28;20210;-71
2022/10/28 10:59:40;;;;;;;3.57;2.30;;;22.70;97.20;24.60;97876.00;;;;4979341;28;20222;-71
2022/10/28 11:02:34;;;;;;;4.47;3.23;;;22.90;97.20;25.10;97881.00;;;;4985533;28;20214;-70
2022/10/28 11:05:24;;;;;;;5.47;3.20;;;23.20;97.00;25.20;97875.00;;;;4986779;28;20226;-69
2022/10/28 11:08:32;;;;;;;3.40;2.50;;;23.30;96.00;24.90;97871.00;;;;4992621;28;20207;-72
2022/10/28 11:11:22;;;;;;;5.63;2.70;;;23.50;94.80;25.10;97866.00;;;;4991994;28;20256;-70
2022/10/28 11:14:24;;;;;;;3.60;2.83;;;23.50;94.10;24.10;97862.00;;;;4989339;28;20207;-72
2022/10/28 11:17:26;;;;;;;3.03;2.70;;;23.40;93.40;25.20;97859.00;;;;4987453;28;20203;-71
2022/10/28 11:20:24;;;;;;;3.80;2.30;;;23.40;93.60;24.90;97854.00;;;;4989309;28;20241;-74
2022/10/28 11:23:32;;;;;;;3.03;2.73;;;23.60;93.30;25.50;97855.00;;;;4986416;28;20288;-71
2022/10/28 11:26:22;;;;;;;3.20;2.57;;;23.80;93.00;26.10;97854.00;;;;4988582;28;20207;-71
2022/10/28 11:29:14;;;;;;;4.10;2.50;;;24.20;92.80;25.90;97844.00;;;;4990297;28;20224;-72
2022/10/28 11:32:20;;;;;;;3.13;2.60;;;24.30;92.00;25.60;97856.00;;;;4993269;28;20255;-74
2022/10/28 11:35:38;;;;;;;4.20;2.30;;;24.30;91.00;26.20;97857.00;;;;4987628;28;20244;-72
2022/10/28 11:38:56;;;;;;;4.93;2.73;;;24.50;90.40;26.10;97846.00;;;;4993169;28;20624;-71
2022/10/28 11:42:00;;;;;;;5.50;2.53;;;24.50;90.80;25.90;97841.00;;;;4998486;28;20596;-71
2022/10/28 11:44:54;;;;;;;4.00;2.30;;;24.50;90.00;26.60;97850.00;;;;4997592;28;20264;-71
2022/10/28 11:48:02;;;;;;;4.73;2.10;;;24.60;90.80;26.50;97851.00;;;;4984309;28;20583;-72
2022/10/28 11:51:11;;;;;;;4.40;2.47;;;24.60;90.40;26.60;97842.00;;;;4993081;28;20209;-72
2022/10/28 11:54:34;;;;;;;5.53;2.57;;;24.80;89.70;26.80;97836.00;;;;4995762;28;20307;-73
2022/10/28 11:57:38;;;;;;;3.73;3.30;;;24.90;86.90;26.60;97834.00;;;;4995123;28;20206;-73
2022/10/28 12:00:53;;;;;;;3.33;2.30;;;25.00;86.60;27.20;97829.00;;;;4997017;28;20233;-71
2022/10/28 12:04:00;;;;;;;9.40;3.20;;;25.10;88.10;28.30;97822.00;;;;4997336;28;20225;-72
2022/10/28 12:07:10;;;;;;;3.60;2.40;;;25.50;87.80;28.30;97820.00;;;;4991214;28;20807;-71
2022/10/28 12:10:24;;;;;;;4.70;2.30;;;25.80;85.60;28.90;97828.00;;;;4987368;28;20225;-71
2022/10/28 12:13:27;;;;;;;4.03;2.03;;;26.20;84.50;28.70;97815.00;;;;4988715;28;20209;-71
2022/10/28 12:16:22;;;;;;;2.75;2.47;;;26.70;81.00;28.90;97818.00;;;;4992884;28;20705;-71
2022/10/28 12:19:17;;;;;;;4.03;2.33;;;26.90;81.10;29.60;97814.00;;;;4989380;28;20308;-71
2022/10/28 12:22:14;;;;;;;2.50;2.15;;;27.20;79.70;30.40;97810.00;;;;4989341;28;20214;-71
2022/10/28 12:25:14;;;;;;;5.63;2.60;;;27.60;79.70;30.20;97808.00;;;;4990309;28;20694;-71
2022/10/28 12:28:07;;;;;;;7.05;2.88;;;28.10;76.00;30.20;97803.00;;;;4991325;28;20215;-72
2022/10/28 12:30:57;;;;;;;9.70;3.75;;;28.20;75.00;30.00;97796.00;;;;4991182;28;20682;-72
2022/10/28 12:33:50;;;;;;;2.80;2.53;;;28.20;73.70;29.90;97797.00;;;;4989227;28;20229;-72
2022/10/28 12:36:44;;;;;;;3.53;3.13;;;28.20;72.50;30.90;97798.00;;;;4988233;28;20222;-72
2022/10/28 12:39:42;;;;;;;4.55;3.53;;;28.40;73.30;31.50;97801.00;;;;4987468;28;20230;-71
2022/10/28 12:42:35;;;;;;;6.03;4.70;;;28.90;72.20;32.30;97805.00;;;;4989512;28;20195;-71
2022/10/28 12:45:25;;;;;;;4.85;4.40;;;29.40;72.00;32.00;97797.00;;;;4989763;28;20312;-71
2022/10/28 12:48:22;;;;;;;5.97;4.80;;;29.80;69.50;32.10;97793.00;;;;4992224;28;20264;-72
2022/10/28 12:51:16;;;;;;;7.28;4.80;;;30.20;67.80;32.20;97789.00;;;;4994222;28;20280;-71
2022/10/28 12:54:21;;;;;;;5.57;3.90;;;30.50;64.90;31.80;97796.00;;;;4988215;28;20213;-71
2022/10/28 12:57:14;;;;;;;6.55;3.88;;;30.60;64.00;32.80;97791.00;;;;4986769;28;20253;-72
2022/10/28 13:00:07;;;;;;;5.22;3.13;;;30.80;63.30;33.20;97799.00;;;;4990086;28;20218;-72
2022/10/28 13:03:03;;;;;;;4.32;3.05;;;31.10;62.50;33.20;97798.00;;;;4989554;28;20233;-72